Time;durP1;ratioP1;P1;durP2;ratioP2;P2;SDS_P1;SDS_P2;PMS_P1;PMS_P2;Temp;Humidity;BMP_temperature;BMP_pressure;BME280_temperature;BME280_humidity;BME280_pressure;Samples;Min_cycle;Max_cycle;Signal;HPM_P1;HPM_P2
2022/03/19 00:01:00;;;;;;;0.75;0.75;;;3.10;99.90;;;;;;5202440;28;20033;-76
2022/03/19 00:03:34;;;;;;;1.13;1.13;;;3.10;99.90;;;;;;5202526;28;20422;-74
2022/03/19 00:06:07;;;;;;;0.85;0.85;;;3.00;99.90;;;;;;5157777;28;20037;-74
2022/03/19 00:08:43;;;;;;;1.08;1.08;;;3.10;99.90;;;;;;5191680;28;20044;-74
2022/03/19 00:11:20;;;;;;;1.17;1.17;;;3.00;99.90;;;;;;5184403;28;20432;-74
2022/03/19 00:13:59;;;;;;;1.38;1.38;;;3.00;99.90;;;;;;5199800;28;20037;-75
2022/03/19 00:16:31;;;;;;;1.02;1.02;;;3.00;99.90;;;;;;5166355;28;20029;-74
2022/03/19 00:19:03;;;;;;;1.10;1.10;;;3.00;99.90;;;;;;5184852;28;20020;-75
2022/03/19 00:21:38;;;;;;;0.50;0.50;;;3.00;99.90;;;;;;5197600;28;20038;-75
2022/03/19 00:24:10;;;;;;;1.10;1.10;;;3.00;99.90;;;;;;5216991;28;20075;-75
2022/03/19 00:26:46;;;;;;;0.90;0.90;;;3.00;99.90;;;;;;5217236;28;20032;-75
2022/03/19 00:29:19;;;;;;;0.70;0.70;;;2.90;99.90;;;;;;5207229;28;20036;-75
2022/03/19 00:31:50;;;;;;;1.13;1.13;;;2.90;99.90;;;;;;5206099;28;20338;-75
2022/03/19 00:34:25;;;;;;;2.67;2.58;;;2.80;99.90;;;;;;5194803;28;20028;-75
2022/03/19 00:36:57;;;;;;;1.02;1.02;;;2.80;99.90;;;;;;5184410;28;20033;-74
2022/03/19 00:39:29;;;;;;;1.38;1.38;;;2.80;99.90;;;;;;5198004;28;20357;-74
2022/03/19 00:42:02;;;;;;;0.70;0.70;;;2.90;99.90;;;;;;5186856;28;20017;-74
2022/03/19 00:44:34;;;;;;;1.17;1.17;;;2.90;99.90;;;;;;5189139;28;20026;-74
2022/03/19 00:47:08;;;;;;;0.75;0.75;;;2.90;99.90;;;;;;5200230;28;20033;-75
2022/03/19 00:49:44;;;;;;;1.60;1.58;;;2.90;99.90;;;;;;5178037;28;20032;-74
2022/03/19 00:52:19;;;;;;;2.65;2.42;;;2.90;99.90;;;;;;5194504;28;20054;-74
2022/03/19 00:54:53;;;;;;;3.17;2.88;;;2.90;99.90;;;;;;5211138;28;20018;-73
2022/03/19 00:57:25;;;;;;;;;;;3.00;99.90;;;;;;5170563;28;20053;-74
2022/03/19 00:59:57;;;;;;;1.13;1.13;;;3.10;99.90;;;;;;5192873;28;19916;-74
2022/03/19 01:02:36;;;;;;;2.15;2.05;;;3.20;99.90;;;;;;5203076;28;20025;-73
2022/03/19 01:05:09;;;;;;;1.35;1.25;;;3.30;99.90;;;;;;5193281;28;20072;-73
2022/03/19 01:07:44;;;;;;;2.35;1.85;;;3.30;99.90;;;;;;5208124;28;20029;-76
2022/03/19 01:10:27;;;;;;;1.20;1.20;;;3.30;99.90;;;;;;5209137;28;20044;-75
2022/03/19 01:13:04;;;;;;;1.30;1.30;;;3.30;99.90;;;;;;5177230;28;20086;-75
2022/03/19 01:15:36;;;;;;;0.57;0.57;;;3.20;99.90;;;;;;5172417;28;20033;-75
2022/03/19 01:18:11;;;;;;;0.60;0.60;;;3.10;99.90;;;;;;5185348;28;20036;-75
2022/03/19 01:20:48;;;;;;;;;;;3.10;99.90;;;;;;5218419;28;20027;-74
2022/03/19 01:23:23;;;;;;;0.70;0.70;;;3.20;99.90;;;;;;5202584;28;19917;-75
2022/03/19 01:25:54;;;;;;;;;;;3.20;99.90;;;;;;5194417;28;20017;-75
2022/03/19 01:28:26;;;;;;;0.90;0.90;;;3.10;99.90;;;;;;5183736;28;19915;-75
2022/03/19 01:31:11;;;;;;;1.02;1.02;;;3.00;99.90;;;;;;5192670;28;20045;-75
2022/03/19 01:33:42;;;;;;;0.52;0.52;;;2.80;99.90;;;;;;5220507;28;20029;-76
2022/03/19 01:36:20;;;;;;;1.25;1.25;;;2.60;99.90;;;;;;5198813;28;20036;-75
2022/03/19 01:38:51;;;;;;;2.35;2.25;;;2.50;99.90;;;;;;5190273;28;20037;-75
2022/03/19 01:41:29;;;;;;;0.52;0.52;;;2.40;99.90;;;;;;5204296;28;20036;-74
2022/03/19 01:44:02;;;;;;;0.70;0.70;;;2.30;99.90;;;;;;5195752;28;20058;-75
2022/03/19 01:47:10;;;;;;;0.50;0.50;;;2.20;99.90;;;;;;5196722;28;20358;-74
2022/03/19 01:49:42;;;;;;;1.55;1.52;;;2.00;99.90;;;;;;5141216;28;20042;-74
2022/03/19 01:52:13;;;;;;;0.63;0.63;;;1.90;99.90;;;;;;5144018;28;20169;-75
2022/03/19 01:54:53;;;;;;;1.45;1.17;;;1.90;99.90;;;;;;5146814;28;20038;-74
2022/03/19 01:57:29;;;;;;;0.60;0.60;;;1.90;99.90;;;;;;5138879;28;20050;-75
2022/03/19 02:00:09;;;;;;;1.10;1.10;;;1.90;99.90;;;;;;5139115;28;20379;-74
2022/03/19 02:02:42;;;;;;;0.65;0.65;;;1.90;99.90;;;;;;5140342;28;20131;-74
2022/03/19 02:05:23;;;;;;;3.13;1.15;;;1.80;99.90;;;;;;5127318;28;20515;-75
2022/03/19 02:07:54;;;;;;;0.77;0.77;;;1.80;99.90;;;;;;5117442;28;20034;-75
2022/03/19 02:10:29;;;;;;;0.60;0.60;;;1.70;99.90;;;;;;5148227;28;20073;-76
2022/03/19 02:13:01;;;;;;;1.33;0.98;;;1.60;99.90;;;;;;5141930;28;20057;-76
2022/03/19 02:15:37;;;;;;;1.00;1.00;;;1.50;99.90;;;;;;5131189;28;20539;-74
2022/03/19 02:18:11;;;;;;;0.55;0.55;;;1.40;99.90;;;;;;5134646;28;20038;-75
2022/03/19 02:20:43;;;;;;;0.82;0.82;;;1.30;99.90;;;;;;5145775;28;20026;-75
2022/03/19 02:26:22;;;;;;;0.75;0.75;;;1.40;99.90;;;;;;5200099;28;20020;-75
2022/03/19 02:28:58;;;;;;;0.80;0.80;;;1.40;99.90;;;;;;5200501;28;20029;-75
2022/03/19 02:31:36;;;;;;;1.25;1.25;;;1.50;99.90;;;;;;5205262;28;20230;-75
2022/03/19 02:34:10;;;;;;;0.80;0.80;;;1.50;99.90;;;;;;5166031;28;20027;-74
2022/03/19 02:36:45;;;;;;;;;;;1.50;99.90;;;;;;5199884;28;20044;-75
2022/03/19 02:39:19;;;;;;;0.60;0.60;;;1.50;99.90;;;;;;5214887;28;20347;-74
2022/03/19 02:41:53;;;;;;;1.33;1.23;;;1.50;99.90;;;;;;5203097;28;20033;-74
2022/03/19 02:44:31;;;;;;;0.88;0.88;;;1.50;99.90;;;;;;5201892;28;20033;-75
2022/03/19 02:47:08;;;;;;;1.23;1.23;;;1.50;99.90;;;;;;5199150;28;20040;-74
2022/03/19 02:49:44;;;;;;;5.13;2.60;;;1.60;99.90;;;;;;5218340;28;20043;-75
2022/03/19 02:52:20;;;;;;;0.85;0.85;;;1.70;99.90;;;;;;5193523;28;20029;-74
2022/03/19 02:54:57;;;;;;;1.90;1.80;;;1.70;99.90;;;;;;5182898;28;20373;-75
2022/03/19 02:57:32;;;;;;;1.17;1.17;;;1.70;99.90;;;;;;5201388;28;20032;-75
2022/03/19 03:00:10;;;;;;;1.63;1.45;;;1.70;99.90;;;;;;5198688;28;20025;-74
2022/03/19 03:02:42;;;;;;;0.82;0.82;;;1.70;99.90;;;;;;5197716;28;20048;-74
2022/03/19 03:05:16;;;;;;;0.60;0.60;;;1.70;99.90;;;;;;5174973;28;20052;-74
2022/03/19 03:07:49;;;;;;;1.40;1.40;;;1.80;99.90;;;;;;5209199;28;20276;-74
2022/03/19 03:10:21;;;;;;;2.05;1.95;;;1.80;99.90;;;;;;5184570;28;20023;-74
2022/03/19 03:12:59;;;;;;;3.45;1.50;;;1.80;99.90;;;;;;5200139;28;20025;-74
2022/03/19 03:15:34;;;;;;;0.82;0.82;;;1.90;99.90;;;;;;5177389;28;20032;-74
2022/03/19 03:18:08;;;;;;;1.95;1.85;;;1.90;99.90;;;;;;5213299;28;20044;-75
2022/03/19 03:20:39;;;;;;;;;;;1.90;99.90;;;;;;5195320;28;20022;-73
2022/03/19 03:23:14;;;;;;;1.15;1.15;;;1.80;99.90;;;;;;5183391;28;19900;-74
2022/03/19 03:25:45;;;;;;;0.77;0.77;;;1.80;99.90;;;;;;5194425;28;20025;-74
2022/03/19 03:28:19;;;;;;;1.23;1.23;;;1.70;99.90;;;;;;5204106;28;20116;-74
2022/03/19 03:30:59;;;;;;;2.40;2.20;;;1.60;99.90;;;;;;5190073;28;20041;-74
2022/03/19 03:33:31;;;;;;;2.17;1.55;;;1.70;99.90;;;;;;5211921;28;20032;-73
2022/03/19 03:36:05;;;;;;;1.00;1.00;;;1.70;99.90;;;;;;5184219;28;20022;-74
2022/03/19 03:38:39;;;;;;;0.60;0.60;;;1.70;99.90;;;;;;5203462;28;20427;-75
2022/03/19 03:41:20;;;;;;;1.30;1.27;;;1.50;99.90;;;;;;5196536;28;20040;-74
2022/03/19 03:43:54;;;;;;;1.38;1.38;;;1.40;99.90;;;;;;5195047;28;20040;-74
2022/03/19 03:46:28;;;;;;;0.80;0.80;;;1.40;99.90;;;;;;5218013;28;20029;-74
2022/03/19 03:49:02;;;;;;;0.95;0.95;;;1.30;99.90;;;;;;5216397;28;20037;-75
2022/03/19 03:51:41;;;;;;;0.90;0.90;;;1.20;99.90;;;;;;5194225;28;20029;-74
2022/03/19 03:54:15;;;;;;;1.23;1.20;;;1.20;99.90;;;;;;5199839;28;20342;-75
2022/03/19 03:56:47;;;;;;;1.50;1.50;;;1.20;99.90;;;;;;5206304;28;20023;-75
2022/03/19 03:59:19;;;;;;;1.88;1.80;;;1.20;99.90;;;;;;5184957;28;20041;-74
2022/03/19 04:01:54;;;;;;;1.38;1.38;;;1.30;99.90;;;;;;5222188;28;20040;-74
2022/03/19 04:04:26;;;;;;;0.70;0.70;;;1.30;99.90;;;;;;5180983;28;20032;-76
2022/03/19 04:06:59;;;;;;;1.88;1.77;;;1.20;99.90;;;;;;5199539;28;20037;-75
2022/03/19 04:09:30;;;;;;;0.90;0.90;;;1.20;99.90;;;;;;5192064;28;20036;-74
2022/03/19 04:12:05;;;;;;;2.00;1.90;;;1.40;99.90;;;;;;5198319;28;20120;-74
2022/03/19 04:14:43;;;;;;;0.77;0.77;;;1.50;99.90;;;;;;5208157;28;20038;-74
2022/03/19 04:17:18;;;;;;;0.80;0.80;;;1.60;99.90;;;;;;5196155;28;20038;-74
2022/03/19 04:19:53;;;;;;;2.40;1.95;;;1.60;99.90;;;;;;5211178;28;20033;-74
2022/03/19 04:22:43;;;;;;;0.68;0.68;;;1.70;99.90;;;;;;5174207;28;20026;-74
2022/03/19 04:25:23;;;;;;;2.30;1.50;;;1.70;99.90;;;;;;5150549;28;20548;-73
2022/03/19 04:27:57;;;;;;;1.38;1.33;;;1.90;99.90;;;;;;5155351;28;20030;-74
2022/03/19 04:30:31;;;;;;;0.82;0.82;;;2.20;99.90;;;;;;5163224;28;20583;-74
2022/03/19 04:33:08;;;;;;;2.50;2.40;;;2.40;99.90;;;;;;5129723;28;20053;-74
2022/03/19 04:38:35;;;;;;;1.58;1.58;;;2.80;99.90;;;;;;5168546;28;20475;-74
2022/03/19 04:41:09;;;;;;;2.13;2.03;;;2.90;99.90;;;;;;5141079;28;20045;-76
2022/03/19 04:43:42;;;;;;;0.90;0.90;;;2.80;99.90;;;;;;5137680;28;20033;-73
2022/03/19 04:46:16;;;;;;;1.30;1.30;;;2.80;99.90;;;;;;5162161;28;20034;-74
2022/03/19 04:48:53;;;;;;;1.17;1.17;;;2.80;99.90;;;;;;5135168;28;20054;-75
2022/03/19 04:51:32;;;;;;;1.15;1.15;;;2.80;99.90;;;;;;5158233;28;20048;-74
2022/03/19 04:54:05;;;;;;;1.00;1.00;;;2.90;99.90;;;;;;5148072;28;20339;-76
2022/03/19 04:56:41;;;;;;;0.75;0.75;;;2.80;99.90;;;;;;5161223;28;20034;-73
2022/03/19 04:59:15;;;;;;;1.77;1.70;;;2.80;99.90;;;;;;5169681;28;20034;-75
2022/03/19 05:01:47;;;;;;;0.90;0.90;;;2.70;99.90;;;;;;5165632;28;20072;-75
2022/03/19 05:04:21;;;;;;;1.30;1.30;;;2.70;99.90;;;;;;5148348;28;20046;-74
2022/03/19 05:06:53;;;;;;;1.20;1.20;;;2.70;99.90;;;;;;5141582;28;20038;-77
2022/03/19 05:12:48;;;;;;;1.38;1.35;;;2.70;99.90;;;;;;5149287;28;20047;-74
2022/03/19 05:15:22;;;;;;;1.10;1.10;;;2.70;99.90;;;;;;5171382;28;20045;-75
2022/03/19 05:17:56;;;;;;;1.50;1.42;;;2.80;99.90;;;;;;5213646;28;20074;-75
2022/03/19 05:20:33;;;;;;;1.50;1.50;;;2.80;99.90;;;;;;5185197;28;20037;-74
2022/03/19 05:23:06;;;;;;;1.20;1.20;;;2.70;99.90;;;;;;5195047;28;20033;-75
2022/03/19 05:25:43;;;;;;;1.38;1.38;;;2.80;99.90;;;;;;5185155;28;20021;-75
2022/03/19 05:28:14;;;;;;;1.33;1.33;;;2.80;99.90;;;;;;5214224;28;20468;-75
2022/03/19 05:30:46;;;;;;;2.00;1.85;;;2.80;99.90;;;;;;5197263;28;20033;-74
2022/03/19 05:34:29;;;;;;;1.20;1.20;;;2.80;99.90;;;;;;5187771;28;20056;-74
2022/03/19 05:36:15;;;;;;;1.08;1.08;;;2.90;99.90;;;;;;5209028;28;20030;-76
2022/03/19 05:38:54;;;;;;;1.63;1.63;;;2.80;99.90;;;;;;5187504;28;20028;-76
2022/03/19 05:41:27;;;;;;;0.85;0.85;;;2.80;99.90;;;;;;5202179;28;20044;-74
2022/03/19 05:44:04;;;;;;;1.20;1.20;;;2.90;99.90;;;;;;5183918;28;20047;-75
2022/03/19 05:46:38;;;;;;;1.48;1.48;;;3.10;99.90;;;;;;5184937;28;20033;-74
2022/03/19 05:49:14;;;;;;;2.22;2.13;;;3.40;99.90;;;;;;5197049;28;20025;-75
2022/03/19 05:51:51;;;;;;;2.33;2.13;;;3.50;99.90;;;;;;5201035;28;20025;-74
2022/03/19 05:54:24;;;;;;;1.38;1.38;;;3.70;99.90;;;;;;5201130;28;20022;-75
2022/03/19 05:56:57;;;;;;;0.75;0.75;;;3.80;99.90;;;;;;5206440;28;20021;-75
2022/03/19 05:59:34;;;;;;;1.25;1.25;;;3.90;99.90;;;;;;5208436;28;20059;-75
2022/03/19 06:02:06;;;;;;;3.70;3.42;;;4.00;99.90;;;;;;5200838;28;20032;-75
2022/03/19 06:04:41;;;;;;;2.50;2.40;;;4.00;99.90;;;;;;5188636;28;20089;-76
2022/03/19 06:07:12;;;;;;;1.27;1.27;;;4.00;99.90;;;;;;5169848;28;20036;-76
2022/03/19 06:09:47;;;;;;;2.25;2.15;;;4.10;99.90;;;;;;5201333;28;20021;-75
2022/03/19 06:12:18;;;;;;;1.40;1.40;;;4.10;99.90;;;;;;5200619;28;20029;-74
2022/03/19 06:15:03;;;;;;;1.10;1.10;;;4.20;99.90;;;;;;5177435;28;20029;-75
2022/03/19 06:17:34;;;;;;;;;;;4.20;99.90;;;;;;5199953;28;20033;-76
2022/03/19 06:20:14;;;;;;;1.38;1.38;;;4.30;99.90;;;;;;5219520;28;19909;-74
2022/03/19 06:22:49;;;;;;;1.10;1.10;;;4.30;99.90;;;;;;5215841;28;20231;-74
2022/03/19 06:25:27;;;;;;;0.90;0.90;;;4.30;99.90;;;;;;5219187;28;20017;-75
2022/03/19 06:27:59;;;;;;;1.58;1.58;;;4.40;99.90;;;;;;5201104;28;20020;-75
2022/03/19 06:30:39;;;;;;;0.80;0.80;;;4.40;99.90;;;;;;5182264;28;20017;-75
2022/03/19 06:33:23;;;;;;;1.40;1.40;;;4.40;99.90;;;;;;5171913;28;20545;-76
2022/03/19 06:38:47;;;;;;;1.30;1.30;;;4.50;99.90;;;;;;5203040;28;20025;-75
2022/03/19 06:41:27;;;;;;;1.60;1.50;;;4.60;99.90;;;;;;5185021;28;20037;-75
2022/03/19 06:44:01;;;;;;;1.52;1.45;;;4.70;99.90;;;;;;5192165;28;20025;-75
2022/03/19 06:46:35;;;;;;;1.07;1.07;;;4.80;99.90;;;;;;5211477;28;20036;-76
2022/03/19 06:49:06;;;;;;;0.75;0.75;;;4.90;99.90;;;;;;5195023;28;20278;-74
2022/03/19 06:51:46;;;;;;;1.00;1.00;;;5.00;99.90;;;;;;5217314;28;20037;-75
2022/03/19 06:54:18;;;;;;;2.05;1.95;;;5.00;99.90;;;;;;5181131;28;20025;-74
2022/03/19 06:56:59;;;;;;;4.47;2.55;;;5.00;99.90;;;;;;5188514;28;20473;-75
2022/03/19 06:59:33;;;;;;;2.53;2.42;;;5.00;99.90;;;;;;5208166;28;20026;-76
2022/03/19 07:02:04;;;;;;;3.40;3.15;;;5.10;99.90;;;;;;5180305;28;20105;-75
2022/03/19 07:04:38;;;;;;;1.75;1.65;;;5.20;99.90;;;;;;5198070;28;20476;-76
2022/03/19 07:07:10;;;;;;;2.03;1.95;;;5.30;99.90;;;;;;5174688;28;20040;-75
2022/03/19 07:09:41;;;;;;;1.02;1.02;;;5.10;99.90;;;;;;5202247;28;20035;-76
2022/03/19 07:12:15;;;;;;;1.55;1.55;;;5.10;99.90;;;;;;5202621;28;20028;-74
2022/03/19 07:14:47;;;;;;;1.38;1.38;;;5.20;99.90;;;;;;5194774;28;20029;-74
2022/03/19 07:17:19;;;;;;;1.38;1.38;;;5.30;99.90;;;;;;5165168;28;20339;-75
2022/03/19 07:19:52;;;;;;;0.63;0.63;;;5.20;99.90;;;;;;5188983;28;20052;-76
2022/03/19 07:22:26;;;;;;;2.28;2.17;;;5.00;99.90;;;;;;5214813;28;20017;-75
2022/03/19 07:25:00;;;;;;;2.20;2.10;;;4.90;99.90;;;;;;5199585;28;20041;-76
2022/03/19 07:27:31;;;;;;;;;;;4.90;99.90;;;;;;5198076;28;20040;-75
2022/03/19 07:30:11;;;;;;;2.30;2.20;;;4.80;99.90;;;;;;5218612;28;19915;-75
2022/03/19 07:32:46;;;;;;;2.70;2.60;;;4.90;99.90;;;;;;5181391;28;20036;-75
2022/03/19 07:35:18;;;;;;;1.27;1.27;;;5.00;99.90;;;;;;5200456;28;20025;-76
2022/03/19 07:37:49;;;;;;;2.85;2.65;;;5.10;99.90;;;;;;5183103;28;20029;-77
2022/03/19 07:43:19;;;;;;;1.50;1.50;;;5.60;99.90;;;;;;5215636;28;20037;-77
2022/03/19 07:45:52;;;;;;;1.70;1.65;;;5.60;99.90;;;;;;5180135;28;20064;-77
2022/03/19 07:48:34;;;;;;;1.83;1.77;;;5.80;99.90;;;;;;5189542;28;20039;-76
2022/03/19 07:51:07;;;;;;;1.38;1.38;;;5.80;99.90;;;;;;5174451;28;20047;-77
2022/03/19 07:53:41;;;;;;;2.10;2.03;;;5.90;99.90;;;;;;5202327;28;20021;-78
2022/03/19 07:56:13;;;;;;;1.20;1.20;;;6.00;99.90;;;;;;5194555;28;20041;-77
2022/03/19 07:58:50;;;;;;;1.45;1.45;;;6.60;99.90;;;;;;5220314;28;20402;-77
2022/03/19 08:01:24;;;;;;;1.27;1.27;;;6.60;99.90;;;;;;5215150;28;20025;-75
2022/03/19 08:03:55;;;;;;;0.95;0.95;;;6.80;99.90;;;;;;5227443;28;20557;-77
2022/03/19 08:06:28;;;;;;;2.58;2.47;;;6.80;99.90;;;;;;5177026;28;20041;-77
2022/03/19 08:09:00;;;;;;;1.00;1.00;;;7.30;99.90;;;;;;5183801;28;20140;-76
2022/03/19 08:11:35;;;;;;;0.90;0.90;;;7.90;99.90;;;;;;5223750;28;20029;-75
2022/03/19 08:14:09;;;;;;;;;;;8.50;99.90;;;;;;5204448;28;20041;-76
2022/03/19 08:16:43;;;;;;;1.65;1.63;;;8.30;99.90;;;;;;5187038;28;19922;-76
2022/03/19 08:19:19;;;;;;;1.55;1.55;;;7.90;99.90;;;;;;5191847;28;20036;-76
2022/03/19 08:21:52;;;;;;;1.80;1.70;;;7.70;99.90;;;;;;5181367;28;20041;-76
2022/03/19 08:24:25;;;;;;;2.47;2.28;;;7.50;99.90;;;;;;5182307;28;20030;-76
2022/03/19 08:26:58;;;;;;;1.42;1.42;;;7.20;99.90;;;;;;5207539;28;20490;-78
2022/03/19 08:29:33;;;;;;;3.22;2.88;;;7.60;99.90;;;;;;5152448;28;20343;-78
2022/03/19 08:32:08;;;;;;;1.10;1.10;;;8.70;99.90;;;;;;5204793;28;20021;-76
2022/03/19 08:34:40;;;;;;;1.45;1.42;;;9.10;99.90;;;;;;5221891;28;20250;-75
2022/03/19 08:37:14;;;;;;;1.33;1.33;;;9.10;99.90;;;;;;5201549;28;20571;-77
2022/03/19 08:42:38;;;;;;;2.25;2.15;;;9.30;99.90;;;;;;5208921;28;20210;-76
2022/03/19 08:45:19;;;;;;;1.08;1.08;;;8.40;99.90;;;;;;5205577;28;20033;-76
2022/03/19 08:47:54;;;;;;;1.63;1.52;;;8.90;99.90;;;;;;5200280;28;20037;-76
2022/03/19 08:50:31;;;;;;;1.85;1.75;;;9.90;99.90;;;;;;5203704;28;20033;-76
2022/03/19 08:53:03;;;;;;;1.90;1.80;;;10.20;99.90;;;;;;5221517;28;20028;-77
2022/03/19 08:55:37;;;;;;;4.05;3.78;;;10.70;99.90;;;;;;5196618;28;20029;-78
2022/03/19 08:58:15;;;;;;;1.45;1.45;;;11.20;99.90;;;;;;5199497;28;20591;-78
2022/03/19 09:00:49;;;;;;;2.28;2.08;;;11.80;99.90;;;;;;5214380;28;20481;-77
2022/03/19 09:03:26;;;;;;;1.48;1.48;;;11.90;99.90;;;;;;5217173;28;20017;-79
2022/03/19 09:05:57;;;;;;;1.15;1.15;;;11.80;99.90;;;;;;5175157;28;20049;-77
2022/03/19 09:08:29;;;;;;;1.02;1.02;;;11.10;99.90;;;;;;5196471;28;20063;-77
2022/03/19 09:11:06;;;;;;;1.30;1.30;;;11.20;99.90;;;;;;5203703;28;20013;-78
2022/03/19 09:13:38;;;;;;;1.88;1.77;;;11.40;99.90;;;;;;5204150;28;20043;-76
2022/03/19 09:16:11;;;;;;;2.58;2.47;;;11.40;99.90;;;;;;5181321;28;20044;-77
2022/03/19 09:18:45;;;;;;;1.10;1.10;;;11.20;99.90;;;;;;5181255;28;20547;-77
2022/03/19 09:21:20;;;;;;;2.55;2.45;;;11.10;99.90;;;;;;5200749;28;20039;-78
2022/03/19 09:23:51;;;;;;;2.03;1.92;;;10.80;99.90;;;;;;5217441;28;20041;-76
2022/03/19 09:26:26;;;;;;;1.83;1.73;;;11.50;99.90;;;;;;5203709;28;20035;-80
2022/03/19 09:28:58;;;;;;;;;;;12.20;99.90;;;;;;5205599;28;20036;-76
2022/03/19 09:31:30;;;;;;;1.75;1.65;;;11.90;99.90;;;;;;5212996;28;19912;-77
2022/03/19 09:34:02;;;;;;;1.10;1.10;;;11.80;99.90;;;;;;5203861;28;20044;-76
2022/03/19 09:36:33;;;;;;;2.30;2.20;;;12.10;99.90;;;;;;5192906;28;20029;-77
2022/03/19 09:39:05;;;;;;;1.67;1.58;;;11.90;99.90;;;;;;5212512;28;20032;-77
2022/03/19 09:41:36;;;;;;;1.27;1.27;;;12.10;99.90;;;;;;5192323;28;20033;-80
2022/03/19 09:44:11;;;;;;;1.85;1.75;;;12.50;99.90;;;;;;5215164;28;20058;-77
2022/03/19 09:46:46;;;;;;;1.83;1.73;;;12.10;99.90;;;;;;5191989;28;20029;-77
2022/03/19 09:49:17;;;;;;;2.25;2.15;;;12.20;99.90;;;;;;5191976;28;20261;-77
2022/03/19 09:51:56;;;;;;;1.35;1.35;;;12.70;99.90;;;;;;5187716;28;20052;-77
2022/03/19 09:54:30;;;;;;;2.17;1.92;;;13.00;99.90;;;;;;5194481;28;20029;-76
2022/03/19 09:57:02;;;;;;;1.60;1.60;;;12.30;99.90;;;;;;5217351;28;20020;-77
2022/03/19 09:59:36;;;;;;;2.40;2.30;;;12.40;99.90;;;;;;5204886;28;20036;-79
2022/03/19 10:02:12;;;;;;;1.27;1.17;;;11.50;99.90;;;;;;5199716;28;20036;-78
2022/03/19 10:04:43;;;;;;;3.17;2.95;;;12.20;99.90;;;;;;5164130;28;20049;-79
2022/03/19 10:10:16;;;;;;;1.45;1.45;;;12.60;99.90;;;;;;5202638;28;20025;-76
2022/03/19 10:12:51;;;;;;;1.35;1.35;;;13.00;99.90;;;;;;5212139;28;20025;-76
2022/03/19 10:15:22;;;;;;;;;;;13.20;99.90;;;;;;5183380;28;20033;-77
2022/03/19 10:18:03;;;;;;;1.65;1.63;;;12.80;99.90;;;;;;5192899;28;19909;-80
2022/03/19 10:20:38;;;;;;;1.48;1.40;;;13.10;99.90;;;;;;5213234;28;20017;-77
2022/03/19 10:23:10;;;;;;;2.45;2.28;;;13.30;99.90;;;;;;5190303;28;20035;-78
2022/03/19 10:25:44;;;;;;;6.80;1.70;;;13.70;99.90;;;;;;5191293;28;20027;-78
2022/03/19 10:28:16;;;;;;;1.65;1.60;;;13.00;99.90;;;;;;5195575;28;20029;-79
2022/03/19 10:30:52;;;;;;;2.47;2.38;;;13.80;99.90;;;;;;5198208;28;20039;-77
2022/03/19 10:33:32;;;;;;;1.58;1.48;;;14.20;99.90;;;;;;5199802;28;20017;-77
2022/03/19 10:36:12;;;;;;;1.60;1.60;;;15.10;99.90;;;;;;5208446;28;20029;-77
2022/03/19 10:38:48;;;;;;;1.73;1.67;;;15.40;99.90;;;;;;5214099;28;20032;-78
2022/03/19 10:41:20;;;;;;;1.92;1.83;;;16.50;98.90;;;;;;5200214;28;20025;-79
2022/03/19 10:43:51;;;;;;;2.50;2.40;;;16.40;99.90;;;;;;5198293;28;20029;-77
2022/03/19 10:46:28;;;;;;;2.78;2.65;;;16.50;96.80;;;;;;5201780;28;20029;-78
2022/03/19 10:48:59;;;;;;;2.28;2.17;;;16.80;97.80;;;;;;5198501;28;20045;-77
2022/03/19 10:51:33;;;;;;;3.65;3.35;;;16.40;94.90;;;;;;5216751;28;20437;-77
2022/03/19 10:54:05;;;;;;;2.67;2.35;;;16.30;95.90;;;;;;5195254;28;20039;-78
2022/03/19 10:56:37;;;;;;;2.45;2.25;;;16.60;95.60;;;;;;5190299;28;20032;-77
2022/03/19 10:59:22;;;;;;;2.72;2.47;;;17.30;94.20;;;;;;5180825;28;20039;-79
2022/03/19 11:01:58;;;;;;;5.00;3.45;;;17.30;94.10;;;;;;5192279;28;20033;-78
2022/03/19 11:04:31;;;;;;;2.90;2.75;;;17.70;95.60;;;;;;5183785;28;20054;-78
2022/03/19 11:07:04;;;;;;;5.28;2.92;;;18.40;92.20;;;;;;5187734;28;20372;-76
2022/03/19 11:09:43;;;;;;;3.77;3.47;;;16.70;93.50;;;;;;5170018;28;20045;-77
2022/03/19 11:12:20;;;;;;;1.58;1.50;;;17.40;93.30;;;;;;5187328;28;20044;-77
2022/03/19 11:14:53;;;;;;;1.75;1.63;;;17.70;91.60;;;;;;5193971;28;20017;-77
2022/03/19 11:17:32;;;;;;;1.67;1.27;;;16.60;91.90;;;;;;5179284;28;20500;-78
2022/03/19 11:20:08;;;;;;;2.13;2.03;;;17.70;92.70;;;;;;5210510;28;20029;-77
2022/03/19 11:22:54;;;;;;;1.60;1.50;;;17.70;91.20;;;;;;5183093;28;20039;-76
2022/03/19 11:25:51;;;;;;;1.55;1.48;;;17.40;88.80;;;;;;5180905;28;20020;-77
2022/03/19 11:28:27;;;;;;;1.95;1.80;;;16.80;91.60;;;;;;5185330;28;20031;-77
2022/03/19 11:31:09;;;;;;;1.30;1.30;;;16.70;90.50;;;;;;5215894;28;20031;-77
2022/03/19 11:33:45;;;;;;;9.20;2.50;;;17.20;92.40;;;;;;5207764;28;20434;-77
2022/03/19 11:36:17;;;;;;;2.83;2.42;;;18.90;91.50;;;;;;5192206;28;20019;-78
2022/03/19 11:38:52;;;;;;;0.98;0.98;;;19.70;90.70;;;;;;5204277;28;20081;-78
2022/03/19 11:41:29;;;;;;;2.03;1.92;;;19.00;88.00;;;;;;5207998;28;20567;-76
2022/03/19 11:44:25;;;;;;;2.13;2.00;;;18.30;90.00;;;;;;5203096;28;20037;-76
2022/03/19 11:47:11;;;;;;;2.85;2.65;;;18.70;85.20;;;;;;5199243;28;20025;-77
2022/03/19 11:50:02;;;;;;;2.58;1.83;;;19.30;87.10;;;;;;5178223;28;20037;-77
2022/03/19 11:52:40;;;;;;;1.20;1.20;;;19.40;86.10;;;;;;5194404;28;20025;-77
2022/03/19 11:55:13;;;;;;;0.98;0.98;;;19.80;86.80;;;;;;5210170;28;20025;-75
2022/03/19 11:57:58;;;;;;;0.98;0.98;;;20.90;81.90;;;;;;5189221;28;20030;-76
2022/03/19 12:00:38;;;;;;;2.20;1.92;;;21.50;87.00;;;;;;5177864;28;20466;-77
2022/03/19 12:03:25;;;;;;;2.30;2.10;;;21.90;85.80;;;;;;5190002;28;20065;-76
2022/03/19 12:05:56;;;;;;;2.72;2.53;;;21.60;86.40;;;;;;5177869;28;20045;-76
2022/03/19 12:08:29;;;;;;;2.75;2.58;;;22.50;84.30;;;;;;5186685;28;20046;-76
2022/03/19 12:11:16;;;;;;;5.32;1.90;;;22.90;85.60;;;;;;5195059;28;20029;-76
2022/03/19 12:13:49;;;;;;;1.45;1.35;;;22.70;80.30;;;;;;5188760;28;20037;-76
2022/03/19 12:16:45;;;;;;;2.28;2.17;;;21.00;78.80;;;;;;5204006;28;20036;-76
2022/03/19 12:20:01;;;;;;;1.05;1.02;;;19.80;83.90;;;;;;5197391;28;20054;-75
2022/03/19 12:22:42;;;;;;;2.38;2.28;;;20.30;81.50;;;;;;5194763;28;20013;-75
2022/03/19 12:25:25;;;;;;;2.50;2.33;;;19.60;81.60;;;;;;5210387;28;20035;-75
2022/03/19 12:27:57;;;;;;;5.13;2.10;;;18.90;83.00;;;;;;5213335;28;20060;-76
2022/03/19 12:30:30;;;;;;;2.67;2.55;;;18.90;81.90;;;;;;5214477;28;20043;-76
2022/03/19 12:33:04;;;;;;;1.50;1.50;;;19.10;85.00;;;;;;5195932;28;20025;-77
2022/03/19 12:35:43;;;;;;;3.28;2.72;;;20.50;82.60;;;;;;5179301;28;20036;-78
2022/03/19 12:38:32;;;;;;;1.73;1.63;;;19.70;82.10;;;;;;5183348;28;20036;-75
2022/03/19 12:41:29;;;;;;;2.00;1.90;;;20.80;80.80;;;;;;5208783;28;20021;-76
2022/03/19 12:44:27;;;;;;;2.92;2.20;;;20.30;83.20;;;;;;5202325;28;20032;-77
2022/03/19 12:47:12;;;;;;;2.97;2.65;;;20.60;78.00;;;;;;5181962;28;20047;-78
2022/03/19 12:49:54;;;;;;;2.67;2.47;;;21.90;76.90;;;;;;5201714;28;20039;-77
2022/03/19 12:52:29;;;;;;;1.95;1.80;;;21.90;80.40;;;;;;5199299;28;20035;-78
2022/03/19 12:55:01;;;;;;;2.65;2.53;;;22.70;80.50;;;;;;5198434;28;20037;-77
2022/03/19 12:57:36;;;;;;;2.33;2.22;;;22.70;78.30;;;;;;5189731;28;20041;-78
2022/03/19 13:00:09;;;;;;;2.67;2.38;;;21.20;78.90;;;;;;5188244;28;20608;-78
2022/03/19 13:02:54;;;;;;;1.67;1.58;;;21.40;80.80;;;;;;5211062;28;20675;-76
2022/03/19 13:05:28;;;;;;;3.67;2.85;;;21.50;78.20;;;;;;5192289;28;20041;-78
2022/03/19 13:08:20;;;;;;;1.98;1.88;;;20.40;78.10;;;;;;5215447;28;20034;-78
2022/03/19 13:10:55;;;;;;;2.03;1.92;;;20.20;78.20;;;;;;5202687;28;20050;-78
2022/03/19 13:13:40;;;;;;;2.38;2.25;;;21.00;80.90;;;;;;5194491;28;20033;-77
2022/03/19 13:16:27;;;;;;;;;;;21.20;77.20;;;;;;5207317;28;20037;-77
2022/03/19 13:19:08;;;;;;;2.45;2.25;;;21.50;78.00;;;;;;5174482;28;19913;-76
2022/03/19 13:21:45;;;;;;;1.17;1.17;;;21.20;76.40;;;;;;5193282;28;20025;-77
2022/03/19 13:24:33;;;;;;;4.85;4.03;;;20.80;77.20;;;;;;5191100;28;20037;-77
2022/03/19 13:27:11;;;;;;;4.72;3.28;;;20.20;78.40;;;;;;5194405;28;20025;-76
2022/03/19 13:29:45;;;;;;;3.25;2.95;;;20.10;80.20;;;;;;5194867;28;20026;-77
2022/03/19 13:32:21;;;;;;;1.40;1.30;;;20.00;79.70;;;;;;5192113;28;20029;-75
2022/03/19 13:34:58;;;;;;;2.88;1.95;;;20.10;78.10;;;;;;5199763;28;20484;-77
2022/03/19 13:37:41;;;;;;;4.10;3.70;;;19.90;80.20;;;;;;5189476;28;20499;-77
2022/03/19 13:40:19;;;;;;;2.78;2.58;;;20.00;79.80;;;;;;5195168;28;20021;-77
2022/03/19 13:42:53;;;;;;;2.65;2.45;;;19.60;79.00;;;;;;5151343;28;20056;-77
2022/03/19 13:45:34;;;;;;;0.95;0.95;;;18.70;81.00;;;;;;5151853;28;20388;-77
2022/03/19 13:48:08;;;;;;;3.90;2.67;;;19.00;81.80;;;;;;5211507;28;20040;-77
2022/03/19 13:51:03;;;;;;;2.05;1.95;;;19.10;81.00;;;;;;5212594;28;20021;-76
2022/03/19 13:53:52;;;;;;;2.65;2.45;;;19.50;80.80;;;;;;5192053;28;20029;-79
2022/03/19 13:56:27;;;;;;;2.00;1.90;;;19.40;80.00;;;;;;5183744;28;20037;-79
2022/03/19 13:59:02;;;;;;;3.15;2.40;;;19.80;79.90;;;;;;5184577;28;20033;-76
2022/03/19 14:01:37;;;;;;;2.97;1.65;;;20.90;77.10;;;;;;5193290;28;20044;-77